FNBG/BUG METAR and TAF weather

Enter ICAO airport designator
Station Type Date Time Source
FNBG METAR 2019/04/25 08:00 UTC NOAA

FNBG 250800Z 00000KT 9999 BKN020 26/22 Q1014


Station Type Date Time Source
FNBG Decoded METAR 2019/04/25 08:00 UTC NOAA

Monbaca Benguela , Angola (FNBG) 12-35S 013-25E 4M
Apr 25, 2019 - 04:00 AM EDT / 2019.04.25 0800 UTC
Wind: Calm:0
Visibility: greater than 7 mile(s):0
Sky conditions: mostly cloudy
Temperature: 78 F (26 C)
Dew Point: 71 F (22 C)
Relative Humidity: 78%
Pressure (altimeter): 29.94 in. Hg (1014 hPa)
ob: FNBG 250800Z 00000KT 9999 BKN020 26/22 Q1014
cycle: 8

Station Type Date Time Source
FNBG TAF 2019/04/25 12:00 UTC NOAA

TAF FNBG 251100Z 2512/2524 31010KT 9000 FEW018 BKN050
TEMPO 2512/2516 24008KT 9999 SCT012 BKN025
BECMG 2518/2520 25004KT 8000 FEW012

Example: see airport list